sensor_id;sensor_type;location;lat;lon;timestamp;pressure;altitude;pressure_sealevel;temperature;humidity
25947;BME280;13745;51.470;9.894;2024-01-30T00:01:11;100580.03;;;6.73;70.85
25947;BME280;13745;51.470;9.894;2024-01-30T00:03:56;100581.75;;;6.73;70.79
25947;BME280;13745;51.470;9.894;2024-01-30T00:06:41;100575.63;;;6.69;70.30
25947;BME280;13745;51.470;9.894;2024-01-30T00:09:26;100576.38;;;6.64;70.73
25947;BME280;13745;51.470;9.894;2024-01-30T00:12:11;100575.41;;;6.59;70.82
25947;BME280;13745;51.470;9.894;2024-01-30T00:14:57;100573.56;;;6.53;70.60
25947;BME280;13745;51.470;9.894;2024-01-30T00:17:43;100581.22;;;6.50;70.49
25947;BME280;13745;51.470;9.894;2024-01-30T00:20:27;100576.03;;;6.47;70.62
25947;BME280;13745;51.470;9.894;2024-01-30T00:23:13;100573.34;;;6.44;71.15
25947;BME280;13745;51.470;9.894;2024-01-30T00:25:58;100568.16;;;6.41;70.69
25947;BME280;13745;51.470;9.894;2024-01-30T00:28:43;100572.41;;;6.39;71.36
25947;BME280;13745;51.470;9.894;2024-01-30T00:31:29;100567.25;;;6.39;71.07
25947;BME280;13745;51.470;9.894;2024-01-30T00:34:15;100566.41;;;6.40;71.06
25947;BME280;13745;51.470;9.894;2024-01-30T00:37:00;100559.56;;;6.42;71.10
25947;BME280;13745;51.470;9.894;2024-01-30T00:39:45;100559.56;;;6.40;71.45
25947;BME280;13745;51.470;9.894;2024-01-30T00:42:30;100556.09;;;6.38;71.29
25947;BME280;13745;51.470;9.894;2024-01-30T00:45:15;100561.13;;;6.35;71.57
25947;BME280;13745;51.470;9.894;2024-01-30T00:48:02;100557.69;;;6.35;71.75
25947;BME280;13745;51.470;9.894;2024-01-30T00:50:47;100562.00;;;6.36;71.42
25947;BME280;13745;51.470;9.894;2024-01-30T00:53:32;100561.94;;;6.33;71.20
25947;BME280;13745;51.470;9.894;2024-01-30T00:56:17;100554.25;;;6.34;72.09
25947;BME280;13745;51.470;9.894;2024-01-30T00:59:02;100561.16;;;6.37;71.77
25947;BME280;13745;51.470;9.894;2024-01-30T01:01:47;100562.94;;;6.38;72.01
25947;BME280;13745;51.470;9.894;2024-01-30T01:04:34;100562.94;;;6.38;71.94
25947;BME280;13745;51.470;9.894;2024-01-30T01:07:19;100562.88;;;6.36;71.84
25947;BME280;13745;51.470;9.894;2024-01-30T01:10:05;100562.88;;;6.36;71.93
25947;BME280;13745;51.470;9.894;2024-01-30T01:12:50;100573.19;;;6.36;72.04
25947;BME280;13745;51.470;9.894;2024-01-30T01:15:35;100573.16;;;6.35;71.69
25947;BME280;13745;51.470;9.894;2024-01-30T01:18:20;100579.13;;;6.34;72.15
25947;BME280;13745;51.470;9.894;2024-01-30T01:21:07;100566.97;;;6.28;72.15
25947;BME280;13745;51.470;9.894;2024-01-30T01:23:52;100572.06;;;6.25;72.14
25947;BME280;13745;51.470;9.894;2024-01-30T01:26:38;100569.47;;;6.24;72.31
25947;BME280;13745;51.470;9.894;2024-01-30T01:29:23;100573.75;;;6.23;71.91
25947;BME280;13745;51.470;9.894;2024-01-30T01:32:12;100575.47;;;6.24;72.36
25947;BME280;13745;51.470;9.894;2024-01-30T01:34:57;100569.47;;;6.24;72.14
25947;BME280;13745;51.470;9.894;2024-01-30T01:37:43;100572.03;;;6.24;72.35
25947;BME280;13745;51.470;9.894;2024-01-30T01:40:29;100579.72;;;6.22;72.26
25947;BME280;13745;51.470;9.894;2024-01-30T01:43:14;100580.59;;;6.23;71.97
25947;BME280;13745;51.470;9.894;2024-01-30T01:45:59;100575.44;;;6.23;72.42
25947;BME280;13745;51.470;9.894;2024-01-30T01:48:45;100581.50;;;6.25;72.50
25947;BME280;13745;51.470;9.894;2024-01-30T01:51:33;100584.97;;;6.27;72.14
25947;BME280;13745;51.470;9.894;2024-01-30T01:54:20;100571.19;;;6.25;72.05
25947;BME280;13745;51.470;9.894;2024-01-30T01:57:05;100574.59;;;6.22;71.92
25947;BME280;13745;51.470;9.894;2024-01-30T01:59:50;100573.72;;;6.22;72.11
25947;BME280;13745;51.470;9.894;2024-01-30T02:02:36;100567.69;;;6.21;71.94
25947;BME280;13745;51.470;9.894;2024-01-30T02:05:22;100571.94;;;6.20;71.90
25947;BME280;13745;51.470;9.894;2024-01-30T02:08:08;100575.41;;;6.21;71.87
25947;BME280;13745;51.470;9.894;2024-01-30T02:10:55;100565.91;;;6.18;72.34
25947;BME280;13745;51.470;9.894;2024-01-30T02:13:41;100568.47;;;6.18;72.06
25947;BME280;13745;51.470;9.894;2024-01-30T02:16:26;100567.50;;;6.13;72.03
25947;BME280;13745;51.470;9.894;2024-01-30T02:19:12;100563.13;;;6.09;72.31
25947;BME280;13745;51.470;9.894;2024-01-30T02:21:58;100567.38;;;6.09;72.09
25947;BME280;13745;51.470;9.894;2024-01-30T02:24:44;100573.34;;;6.06;72.44
25947;BME280;13745;51.470;9.894;2024-01-30T02:27:29;100558.69;;;6.04;72.74
25947;BME280;13745;51.470;9.894;2024-01-30T02:30:14;100557.88;;;6.05;72.59
25947;BME280;13745;51.470;9.894;2024-01-30T02:32:59;100557.94;;;6.08;72.49
25947;BME280;13745;51.470;9.894;2024-01-30T02:35:44;100559.66;;;6.09;72.71
25947;BME280;13745;51.470;9.894;2024-01-30T02:38:30;100551.94;;;6.09;72.45
25947;BME280;13745;51.470;9.894;2024-01-30T02:41:15;100557.06;;;6.07;72.84
25947;BME280;13745;51.470;9.894;2024-01-30T02:44:00;100545.88;;;6.05;72.74
25947;BME280;13745;51.470;9.894;2024-01-30T02:46:46;100539.03;;;6.06;72.71
25947;BME280;13745;51.470;9.894;2024-01-30T02:49:31;100537.28;;;6.05;72.76
25947;BME280;13745;51.470;9.894;2024-01-30T02:52:16;100536.31;;;6.01;72.58
25947;BME280;13745;51.470;9.894;2024-01-30T02:55:02;100531.16;;;6.00;72.44
25947;BME280;13745;51.470;9.894;2024-01-30T02:57:47;100531.09;;;5.97;73.01
25947;BME280;13745;51.470;9.894;2024-01-30T03:00:34;100525.09;;;5.98;72.87
25947;BME280;13745;51.470;9.894;2024-01-30T03:03:18;100527.72;;;5.99;72.87
25947;BME280;13745;51.470;9.894;2024-01-30T03:06:04;100532.84;;;5.99;72.91
25947;BME280;13745;51.470;9.894;2024-01-30T03:08:49;100534.59;;;6.00;73.07
25947;BME280;13745;51.470;9.894;2024-01-30T03:11:36;100529.41;;;5.99;72.96
25947;BME280;13745;51.470;9.894;2024-01-30T03:14:21;100528.56;;;6.00;72.89
25947;BME280;13745;51.470;9.894;2024-01-30T03:17:07;100522.53;;;5.98;73.01
25947;BME280;13745;51.470;9.894;2024-01-30T03:19:52;100521.53;;;5.93;72.78
25947;BME280;13745;51.470;9.894;2024-01-30T03:22:37;100522.31;;;5.90;73.15
25947;BME280;13745;51.470;9.894;2024-01-30T03:25:22;100527.53;;;5.91;73.19
25947;BME280;13745;51.470;9.894;2024-01-30T03:28:09;100519.72;;;5.88;72.91
25947;BME280;13745;51.470;9.894;2024-01-30T03:30:54;100517.06;;;5.87;73.07
25947;BME280;13745;51.470;9.894;2024-01-30T03:33:39;100511.94;;;5.87;73.12
25947;BME280;13745;51.470;9.894;2024-01-30T03:36:24;100515.34;;;5.86;73.09
25947;BME280;13745;51.470;9.894;2024-01-30T03:39:09;100511.88;;;5.84;72.97
25947;BME280;13745;51.470;9.894;2024-01-30T03:41:54;100510.97;;;5.82;73.36
25947;BME280;13745;51.470;9.894;2024-01-30T03:44:41;100507.50;;;5.80;73.40
25947;BME280;13745;51.470;9.894;2024-01-30T03:47:26;100500.59;;;5.79;73.21
25947;BME280;13745;51.470;9.894;2024-01-30T03:50:11;100509.09;;;5.76;73.22
25947;BME280;13745;51.470;9.894;2024-01-30T03:52:56;100503.97;;;5.76;73.15
25947;BME280;13745;51.470;9.894;2024-01-30T03:55:41;100502.22;;;5.75;73.41
25947;BME280;13745;51.470;9.894;2024-01-30T03:58:26;100509.94;;;5.75;73.32
25947;BME280;13745;51.470;9.894;2024-01-30T04:01:14;100499.63;;;5.74;73.20
25947;BME280;13745;51.470;9.894;2024-01-30T04:03:59;100498.66;;;5.70;73.44
25947;BME280;13745;51.470;9.894;2024-01-30T04:06:44;100484.03;;;5.68;73.42
25947;BME280;13745;51.470;9.894;2024-01-30T04:09:29;100489.97;;;5.65;73.50
25947;BME280;13745;51.470;9.894;2024-01-30T04:12:16;100482.13;;;5.60;73.53
25947;BME280;13745;51.470;9.894;2024-01-30T04:15:02;100482.97;;;5.59;73.35
25947;BME280;13745;51.470;9.894;2024-01-30T04:17:49;100482.91;;;5.56;73.53
25947;BME280;13745;51.470;9.894;2024-01-30T04:20:34;100478.59;;;5.55;73.28
25947;BME280;13745;51.470;9.894;2024-01-30T04:23:19;100484.56;;;5.54;73.35
25947;BME280;13745;51.470;9.894;2024-01-30T04:26:04;100488.78;;;5.52;73.51
25947;BME280;13745;51.470;9.894;2024-01-30T04:28:49;100493.03;;;5.50;73.31
25947;BME280;13745;51.470;9.894;2024-01-30T04:31:36;100495.53;;;5.47;73.35
25947;BME280;13745;51.470;9.894;2024-01-30T04:34:22;100495.47;;;5.46;73.62
25947;BME280;13745;51.470;9.894;2024-01-30T04:37:07;100493.72;;;5.43;73.72
25947;BME280;13745;51.470;9.894;2024-01-30T04:39:52;100491.97;;;5.42;73.64
25947;BME280;13745;51.470;9.894;2024-01-30T04:42:37;100492.81;;;5.41;73.48
25947;BME280;13745;51.470;9.894;2024-01-30T04:45:22;100489.28;;;5.38;73.72
25947;BME280;13745;51.470;9.894;2024-01-30T04:48:07;100487.50;;;5.35;73.78
25947;BME280;13745;51.470;9.894;2024-01-30T04:50:54;100490.06;;;5.35;73.70
25947;BME280;13745;51.470;9.894;2024-01-30T04:53:39;100491.84;;;5.38;73.74
25947;BME280;13745;51.470;9.894;2024-01-30T04:56:24;100490.25;;;5.41;73.80
25947;BME280;13745;51.470;9.894;2024-01-30T04:59:09;100500.63;;;5.46;73.65
25947;BME280;13745;51.470;9.894;2024-01-30T05:01:54;100496.41;;;5.48;73.37
25947;BME280;13745;51.470;9.894;2024-01-30T05:04:40;100500.69;;;5.47;73.39
25947;BME280;13745;51.470;9.894;2024-01-30T05:07:27;100498.06;;;5.46;73.48
25947;BME280;13745;51.470;9.894;2024-01-30T05:10:12;100498.00;;;5.44;73.68
25947;BME280;13745;51.470;9.894;2024-01-30T05:12:57;100501.38;;;5.42;73.48
25947;BME280;13745;51.470;9.894;2024-01-30T05:15:42;100496.13;;;5.37;73.71
25947;BME280;13745;51.470;9.894;2024-01-30T05:18:27;100499.56;;;5.38;73.67
25947;BME280;13745;51.470;9.894;2024-01-30T05:21:12;100492.66;;;5.35;73.85
25947;BME280;13745;51.470;9.894;2024-01-30T05:23:58;100496.06;;;5.34;74.05
25947;BME280;13745;51.470;9.894;2024-01-30T05:26:44;100490.91;;;5.34;73.90
25947;BME280;13745;51.470;9.894;2024-01-30T05:29:29;100495.22;;;5.35;74.03
25947;BME280;13745;51.470;9.894;2024-01-30T05:32:13;100496.13;;;5.37;74.21
25947;BME280;13745;51.470;9.894;2024-01-30T05:34:58;100498.69;;;5.37;73.96
25947;BME280;13745;51.470;9.894;2024-01-30T05:37:43;100492.75;;;5.38;74.18
25947;BME280;13745;51.470;9.894;2024-01-30T05:40:30;100501.25;;;5.37;74.23
25947;BME280;13745;51.470;9.894;2024-01-30T05:43:15;100497.78;;;5.35;74.44
25947;BME280;13745;51.470;9.894;2024-01-30T05:46:00;100497.81;;;5.36;74.07
25947;BME280;13745;51.470;9.894;2024-01-30T05:48:46;100497.78;;;5.35;74.41
25947;BME280;13745;51.470;9.894;2024-01-30T05:51:31;100508.06;;;5.35;74.41
25947;BME280;13745;51.470;9.894;2024-01-30T05:54:16;100504.59;;;5.33;74.43
25947;BME280;13745;51.470;9.894;2024-01-30T05:57:02;100508.06;;;5.35;74.47
25947;BME280;13745;51.470;9.894;2024-01-30T05:59:48;100503.78;;;5.35;74.40
25947;BME280;13745;51.470;9.894;2024-01-30T06:02:35;100501.25;;;5.37;74.26
25947;BME280;13745;51.470;9.894;2024-01-30T06:05:20;100496.97;;;5.38;73.99
25947;BME280;13745;51.470;9.894;2024-01-30T06:08:06;100495.22;;;5.35;74.29
25947;BME280;13745;51.470;9.894;2024-01-30T06:10:51;100490.00;;;5.32;74.10
25947;BME280;13745;51.470;9.894;2024-01-30T06:13:37;100502.03;;;5.33;74.12
25947;BME280;13745;51.470;9.894;2024-01-30T06:16:23;100491.75;;;5.33;74.15
25947;BME280;13745;51.470;9.894;2024-01-30T06:19:07;100497.72;;;5.32;74.29
25947;BME280;13745;51.470;9.894;2024-01-30T06:21:53;100495.97;;;5.31;74.08
25947;BME280;13745;51.470;9.894;2024-01-30T06:24:38;100487.41;;;5.30;74.12
25947;BME280;13745;51.470;9.894;2024-01-30T06:27:23;100489.91;;;5.29;74.23
25947;BME280;13745;51.470;9.894;2024-01-30T06:30:10;100490.75;;;5.28;74.62
25947;BME280;13745;51.470;9.894;2024-01-30T06:32:55;100483.03;;;5.28;74.43
25947;BME280;13745;51.470;9.894;2024-01-30T06:35:40;100481.31;;;5.28;74.45
25947;BME280;13745;51.470;9.894;2024-01-30T06:38:25;100486.47;;;5.28;74.29
25947;BME280;13745;51.470;9.894;2024-01-30T06:41:11;100484.78;;;5.29;74.46
25947;BME280;13745;51.470;9.894;2024-01-30T06:43:55;100486.47;;;5.28;74.34
25947;BME280;13745;51.470;9.894;2024-01-30T06:46:42;100488.09;;;5.25;74.32
25947;BME280;13745;51.470;9.894;2024-01-30T06:49:27;100493.19;;;5.22;74.50
25947;BME280;13745;51.470;9.894;2024-01-30T06:52:12;100488.03;;;5.22;74.74
25947;BME280;13745;51.470;9.894;2024-01-30T06:54:57;100499.19;;;5.22;74.53
25947;BME280;13745;51.470;9.894;2024-01-30T06:57:43;100484.66;;;5.24;74.64
25947;BME280;13745;51.470;9.894;2024-01-30T07:00:28;100497.56;;;5.26;74.73
25947;BME280;13745;51.470;9.894;2024-01-30T07:03:14;100501.00;;;5.26;74.93
25947;BME280;13745;51.470;9.894;2024-01-30T07:05:59;100488.09;;;5.25;74.80
25947;BME280;13745;51.470;9.894;2024-01-30T07:08:44;100488.94;;;5.24;74.45
25947;BME280;13745;51.470;9.894;2024-01-30T07:11:29;100496.66;;;5.24;74.88
25947;BME280;13745;51.470;9.894;2024-01-30T07:14:15;100489.75;;;5.21;74.86
25947;BME280;13745;51.470;9.894;2024-01-30T07:17:01;100491.47;;;5.22;75.04
25947;BME280;13745;51.470;9.894;2024-01-30T07:19:48;100501.00;;;5.26;75.03
25947;BME280;13745;51.470;9.894;2024-01-30T07:22:33;100495.00;;;5.27;74.70
25947;BME280;13745;51.470;9.894;2024-01-30T07:25:18;100489.97;;;5.30;74.84
25947;BME280;13745;51.470;9.894;2024-01-30T07:28:04;100495.22;;;5.35;74.91
25947;BME280;13745;51.470;9.894;2024-01-30T07:30:49;100493.53;;;5.37;74.56
25947;BME280;13745;51.470;9.894;2024-01-30T07:33:34;100500.59;;;5.44;74.40
25947;BME280;13745;51.470;9.894;2024-01-30T07:36:21;100497.31;;;5.50;74.53
25947;BME280;13745;51.470;9.894;2024-01-30T07:39:06;100498.38;;;5.58;74.04
25947;BME280;13745;51.470;9.894;2024-01-30T07:41:51;100494.25;;;5.64;74.07
25947;BME280;13745;51.470;9.894;2024-01-30T07:44:36;100496.97;;;5.71;73.66
25947;BME280;13745;51.470;9.894;2024-01-30T07:47:21;100496.28;;;5.78;73.37
25947;BME280;13745;51.470;9.894;2024-01-30T07:50:07;100506.75;;;5.85;73.21
25947;BME280;13745;51.470;9.894;2024-01-30T07:52:55;100498.38;;;5.93;73.18
25947;BME280;13745;51.470;9.894;2024-01-30T07:55:40;100503.72;;;6.00;72.91
25947;BME280;13745;51.470;9.894;2024-01-30T07:58:28;100499.59;;;6.08;72.71
25947;BME280;13745;51.470;9.894;2024-01-30T08:01:14;100501.63;;;6.22;72.95
25947;BME280;13745;51.470;9.894;2024-01-30T08:03:59;100500.00;;;6.25;72.69
25947;BME280;13745;51.470;9.894;2024-01-30T08:06:45;100499.13;;;6.25;72.59
25947;BME280;13745;51.470;9.894;2024-01-30T08:09:31;100490.53;;;6.24;72.17
25947;BME280;13745;51.470;9.894;2024-01-30T08:12:16;100495.72;;;6.27;72.61
25947;BME280;13745;51.470;9.894;2024-01-30T08:15:01;100491.53;;;6.31;72.48
25947;BME280;13745;51.470;9.894;2024-01-30T08:17:46;100495.25;;;6.45;72.44
25947;BME280;13745;51.470;9.894;2024-01-30T08:20:31;100490.38;;;6.57;71.96
25947;BME280;13745;51.470;9.894;2024-01-30T08:23:16;100484.69;;;6.73;71.88
25947;BME280;13745;51.470;9.894;2024-01-30T08:26:03;100481.63;;;6.93;71.57
25947;BME280;13745;51.470;9.894;2024-01-30T08:28:48;100487.06;;;7.07;71.33
25947;BME280;13745;51.470;9.894;2024-01-30T08:31:34;100495.97;;;7.24;70.80
25947;BME280;13745;51.470;9.894;2024-01-30T08:34:19;100495.25;;;7.32;70.42
25947;BME280;13745;51.470;9.894;2024-01-30T08:37:04;100497.13;;;7.40;70.27
25947;BME280;13745;51.470;9.894;2024-01-30T08:39:49;100486.81;;;7.41;70.40
25947;BME280;13745;51.470;9.894;2024-01-30T08:42:35;100495.44;;;7.43;70.68
25947;BME280;13745;51.470;9.894;2024-01-30T08:45:21;100499.81;;;7.46;70.72
25947;BME280;13745;51.470;9.894;2024-01-30T08:48:06;100498.19;;;7.52;70.61
25947;BME280;13745;51.470;9.894;2024-01-30T08:50:52;100507.88;;;7.66;70.25
25947;BME280;13745;51.470;9.894;2024-01-30T08:53:37;100499.41;;;7.73;69.60
25947;BME280;13745;51.470;9.894;2024-01-30T08:56:22;100492.59;;;7.78;70.00
25947;BME280;13745;51.470;9.894;2024-01-30T08:59:08;100493.50;;;7.80;69.49
25947;BME280;13745;51.470;9.894;2024-01-30T09:01:54;100487.50;;;7.82;69.64
25947;BME280;13745;51.470;9.894;2024-01-30T09:04:39;100487.84;;;8.04;69.17
25947;BME280;13745;51.470;9.894;2024-01-30T09:07:24;100488.09;;;8.21;68.76
25947;BME280;13745;51.470;9.894;2024-01-30T09:10:09;100475.44;;;8.39;68.82
25947;BME280;13745;51.470;9.894;2024-01-30T09:12:54;100491.91;;;8.47;68.58
25947;BME280;13745;51.470;9.894;2024-01-30T09:15:41;100479.09;;;8.53;67.75
25947;BME280;13745;51.470;9.894;2024-01-30T09:18:26;100493.94;;;8.71;67.64
25947;BME280;13745;51.470;9.894;2024-01-30T09:21:11;100491.56;;;8.88;67.80
25947;BME280;13745;51.470;9.894;2024-01-30T09:24:02;100482.25;;;9.02;66.90
25947;BME280;13745;51.470;9.894;2024-01-30T09:26:47;100484.06;;;9.12;66.70
25947;BME280;13745;51.470;9.894;2024-01-30T09:29:33;100476.34;;;9.17;66.76
25947;BME280;13745;51.470;9.894;2024-01-30T09:32:21;100481.50;;;9.14;66.81
25947;BME280;13745;51.470;9.894;2024-01-30T09:35:07;100489.28;;;9.18;66.88
25947;BME280;13745;51.470;9.894;2024-01-30T09:37:52;100489.41;;;9.27;66.42
25947;BME280;13745;51.470;9.894;2024-01-30T09:40:37;100497.25;;;9.38;66.25
25947;BME280;13745;51.470;9.894;2024-01-30T09:43:23;100488.63;;;9.36;66.05
25947;BME280;13745;51.470;9.894;2024-01-30T09:46:12;100485.25;;;9.43;65.87
25947;BME280;13745;51.470;9.894;2024-01-30T09:48:59;100490.44;;;9.45;65.78
25947;BME280;13745;51.470;9.894;2024-01-30T09:51:45;100490.53;;;9.58;65.98
25947;BME280;13745;51.470;9.894;2024-01-30T09:54:30;100491.59;;;9.83;65.74
25947;BME280;13745;51.470;9.894;2024-01-30T09:57:16;100483.28;;;10.23;64.54
25947;BME280;13745;51.470;9.894;2024-01-30T10:00:01;100478.28;;;10.61;64.08
25947;BME280;13745;51.470;9.894;2024-01-30T10:02:56;100480.13;;;10.97;63.42
25947;BME280;13745;51.470;9.894;2024-01-30T10:05:46;100489.72;;;11.22;62.71
25947;BME280;13745;51.470;9.894;2024-01-30T10:08:35;100478.47;;;11.40;62.53
25947;BME280;13745;51.470;9.894;2024-01-30T10:11:20;100487.16;;;11.48;61.98
25947;BME280;13745;51.470;9.894;2024-01-30T10:14:05;100475.88;;;11.25;62.41
25947;BME280;13745;51.470;9.894;2024-01-30T10:16:50;100480.19;;;11.18;62.62
25947;BME280;13745;51.470;9.894;2024-01-30T10:19:36;100485.34;;;11.17;63.19
25947;BME280;13745;51.470;9.894;2024-01-30T10:22:22;100484.50;;;11.04;63.21
25947;BME280;13745;51.470;9.894;2024-01-30T10:25:09;100487.94;;;11.03;63.35
25947;BME280;13745;51.470;9.894;2024-01-30T10:27:54;100470.69;;;11.22;62.92
25947;BME280;13745;51.470;9.894;2024-01-30T10:30:40;100479.34;;;11.36;62.90
25947;BME280;13745;51.470;9.894;2024-01-30T10:33:25;100477.59;;;11.18;63.01
25947;BME280;13745;51.470;9.894;2024-01-30T10:36:12;100475.84;;;11.04;63.16
25947;BME280;13745;51.470;9.894;2024-01-30T10:38:59;100468.00;;;10.90;63.42
25947;BME280;13745;51.470;9.894;2024-01-30T10:41:47;100468.84;;;10.78;63.64
25947;BME280;13745;51.470;9.894;2024-01-30T10:44:45;100462.81;;;10.85;63.88
25947;BME280;13745;51.470;9.894;2024-01-30T10:47:34;100462.00;;;11.05;63.35
25947;BME280;13745;51.470;9.894;2024-01-30T10:50:19;100449.94;;;11.27;63.24
25947;BME280;13745;51.470;9.894;2024-01-30T10:53:05;100447.34;;;11.56;62.55
25947;BME280;13745;51.470;9.894;2024-01-30T10:55:54;100436.09;;;11.67;62.41
25947;BME280;13745;51.470;9.894;2024-01-30T10:58:39;100445.63;;;11.88;62.29
25947;BME280;13745;51.470;9.894;2024-01-30T11:01:24;100437.78;;;12.06;61.82
25947;BME280;13745;51.470;9.894;2024-01-30T11:04:11;100430.88;;;11.96;61.89
25947;BME280;13745;51.470;9.894;2024-01-30T11:06:57;100432.63;;;11.77;62.09
25947;BME280;13745;51.470;9.894;2024-01-30T11:09:48;100423.97;;;11.63;62.61
25947;BME280;13745;51.470;9.894;2024-01-30T11:12:38;100436.97;;;11.43;62.68
25947;BME280;13745;51.470;9.894;2024-01-30T11:15:24;100429.16;;;11.40;63.06
25947;BME280;13745;51.470;9.894;2024-01-30T11:18:10;100421.38;;;11.60;62.78
25947;BME280;13745;51.470;9.894;2024-01-30T11:20:56;100420.53;;;11.86;62.39
25947;BME280;13745;51.470;9.894;2024-01-30T11:23:42;100410.09;;;12.01;62.35
25947;BME280;13745;51.470;9.894;2024-01-30T11:26:28;100410.09;;;12.08;62.04
25947;BME280;13745;51.470;9.894;2024-01-30T11:29:16;100406.63;;;12.03;62.44
25947;BME280;13745;51.470;9.894;2024-01-30T11:32:02;100408.38;;;11.95;62.38
25947;BME280;13745;51.470;9.894;2024-01-30T11:34:47;100409.22;;;11.91;62.71
25947;BME280;13745;51.470;9.894;2024-01-30T11:37:36;100404.94;;;11.92;62.73
25947;BME280;13745;51.470;9.894;2024-01-30T11:40:23;100404.91;;;11.82;63.00
25947;BME280;13745;51.470;9.894;2024-01-30T11:43:10;100406.66;;;11.76;62.88
25947;BME280;13745;51.470;9.894;2024-01-30T11:45:57;100415.31;;;11.63;63.37
25947;BME280;13745;51.470;9.894;2024-01-30T11:48:42;100415.31;;;11.47;63.61
25947;BME280;13745;51.470;9.894;2024-01-30T11:51:27;100416.19;;;11.33;63.94
25947;BME280;13745;51.470;9.894;2024-01-30T11:54:13;100420.50;;;11.18;64.39
25947;BME280;13745;51.470;9.894;2024-01-30T11:56:59;100430.00;;;11.04;64.66
25947;BME280;13745;51.470;9.894;2024-01-30T11:59:44;100429.97;;;10.90;65.02
25947;BME280;13745;51.470;9.894;2024-01-30T12:02:30;100426.50;;;10.78;65.35
25947;BME280;13745;51.470;9.894;2024-01-30T12:05:15;100418.66;;;10.62;65.61
25947;BME280;13745;51.470;9.894;2024-01-30T12:08:01;100408.25;;;10.53;65.78
25947;BME280;13745;51.470;9.894;2024-01-30T12:10:46;100403.91;;;10.45;66.16
25947;BME280;13745;51.470;9.894;2024-01-30T12:13:31;100405.63;;;10.46;66.35
25947;BME280;13745;51.470;9.894;2024-01-30T12:16:16;100406.50;;;10.48;66.35
25947;BME280;13745;51.470;9.894;2024-01-30T12:19:03;100410.00;;;10.53;66.19
25947;BME280;13745;51.470;9.894;2024-01-30T12:21:53;100404.84;;;10.62;66.42
25947;BME280;13745;51.470;9.894;2024-01-30T12:24:39;100402.28;;;10.79;66.22
25947;BME280;13745;51.470;9.894;2024-01-30T12:27:24;100410.97;;;10.96;65.86
25947;BME280;13745;51.470;9.894;2024-01-30T12:30:10;100404.94;;;11.57;65.25
25947;BME280;13745;51.470;9.894;2024-01-30T12:32:57;100390.06;;;12.35;63.88
25947;BME280;13745;51.470;9.894;2024-01-30T12:35:45;100390.84;;;13.72;61.31
25947;BME280;13745;51.470;9.894;2024-01-30T12:38:30;100395.38;;;15.01;58.97
25947;BME280;13745;51.470;9.894;2024-01-30T12:41:16;100405.63;;;15.14;59.02
25947;BME280;13745;51.470;9.894;2024-01-30T12:44:01;100389.50;;;14.85;58.77
25947;BME280;13745;51.470;9.894;2024-01-30T12:46:47;100398.88;;;14.32;59.53
25947;BME280;13745;51.470;9.894;2024-01-30T12:49:32;100398.63;;;13.73;60.46
25947;BME280;13745;51.470;9.894;2024-01-30T12:52:18;100386.81;;;13.37;61.07
25947;BME280;13745;51.470;9.894;2024-01-30T12:55:04;100380.09;;;13.06;61.45
25947;BME280;13745;51.470;9.894;2024-01-30T12:57:49;100400.19;;;12.85;61.99
25947;BME280;13745;51.470;9.894;2024-01-30T13:00:34;100399.41;;;12.71;62.36
25947;BME280;13745;51.470;9.894;2024-01-30T13:03:19;100383.88;;;12.59;62.51
25947;BME280;13745;51.470;9.894;2024-01-30T13:06:04;100394.28;;;12.54;62.68
25947;BME280;13745;51.470;9.894;2024-01-30T13:08:51;100396.94;;;12.50;62.93
25947;BME280;13745;51.470;9.894;2024-01-30T13:11:36;100392.59;;;12.46;63.16
25947;BME280;13745;51.470;9.894;2024-01-30T13:14:21;100393.50;;;12.42;63.24
25947;BME280;13745;51.470;9.894;2024-01-30T13:17:06;100396.09;;;12.43;63.36
25947;BME280;13745;51.470;9.894;2024-01-30T13:19:51;100383.09;;;12.43;63.45
25947;BME280;13745;51.470;9.894;2024-01-30T13:22:37;100390.84;;;12.48;63.46
25947;BME280;13745;51.470;9.894;2024-01-30T13:25:24;100392.53;;;12.61;63.42
25947;BME280;13745;51.470;9.894;2024-01-30T13:28:10;100401.97;;;12.73;63.19
25947;BME280;13745;51.470;9.894;2024-01-30T13:30:55;100408.91;;;12.74;63.19
25947;BME280;13745;51.470;9.894;2024-01-30T13:33:40;100396.81;;;12.68;63.38
25947;BME280;13745;51.470;9.894;2024-01-30T13:36:25;100394.28;;;12.56;63.62
25947;BME280;13745;51.470;9.894;2024-01-30T13:39:10;100381.34;;;12.45;64.02
25947;BME280;13745;51.470;9.894;2024-01-30T13:41:57;100381.34;;;12.41;64.35
25947;BME280;13745;51.470;9.894;2024-01-30T13:44:42;100375.28;;;12.42;64.49
25947;BME280;13745;51.470;9.894;2024-01-30T13:47:28;100383.09;;;12.38;64.63
25947;BME280;13745;51.470;9.894;2024-01-30T13:50:13;100367.50;;;12.37;64.64
25947;BME280;13745;51.470;9.894;2024-01-30T13:53:02;100376.16;;;12.37;64.88
25947;BME280;13745;51.470;9.894;2024-01-30T13:55:47;100350.97;;;12.52;64.77
25947;BME280;13745;51.470;9.894;2024-01-30T13:58:33;100341.38;;;12.61;64.69
25947;BME280;13745;51.470;9.894;2024-01-30T14:01:20;100355.09;;;12.80;64.50
25947;BME280;13745;51.470;9.894;2024-01-30T14:04:05;100360.31;;;12.83;64.58
25947;BME280;13745;51.470;9.894;2024-01-30T14:06:50;100378.47;;;12.91;64.46
25947;BME280;13745;51.470;9.894;2024-01-30T14:09:35;100381.91;;;12.94;64.61
25947;BME280;13745;51.470;9.894;2024-01-30T14:12:20;100389.72;;;12.90;64.90
25947;BME280;13745;51.470;9.894;2024-01-30T14:15:08;100394.09;;;12.86;65.12
25947;BME280;13745;51.470;9.894;2024-01-30T14:17:53;100390.69;;;12.78;65.67
25947;BME280;13745;51.470;9.894;2024-01-30T14:20:38;100397.66;;;12.72;65.84
25947;BME280;13745;51.470;9.894;2024-01-30T14:23:24;100405.50;;;12.62;65.92
25947;BME280;13745;51.470;9.894;2024-01-30T14:26:09;100398.59;;;12.57;66.46
25947;BME280;13745;51.470;9.894;2024-01-30T14:28:54;100404.72;;;12.48;66.71
25947;BME280;13745;51.470;9.894;2024-01-30T14:31:41;100409.94;;;12.39;67.21
25947;BME280;13745;51.470;9.894;2024-01-30T14:34:26;100409.97;;;12.31;67.65